createdAt,value
2022-08-09T00:00:00.522Z,19.14
2022-08-09T00:02:42.979Z,19.04
2022-08-09T00:06:19.591Z,19.02
2022-08-09T00:08:09.973Z,19.00
2022-08-09T00:10:39.275Z,18.92
2022-08-09T00:13:16.960Z,18.90
2022-08-09T00:15:59.734Z,18.89
2022-08-09T00:18:34.904Z,18.89
2022-08-09T00:21:07.944Z,18.85
2022-08-09T00:23:55.966Z,18.85
2022-08-09T00:26:32.767Z,18.80
2022-08-09T00:29:03.800Z,18.77
2022-08-09T00:31:59.694Z,18.71
2022-08-09T00:34:33.502Z,18.69
2022-08-09T00:37:02.088Z,18.59
2022-08-09T00:40:13.092Z,18.58
2022-08-09T00:44:10.392Z,18.59
2022-08-09T00:45:14.923Z,18.57
2022-08-09T00:47:45.407Z,18.54
2022-08-09T00:50:15.047Z,18.51
2022-08-09T00:52:43.756Z,18.45
2022-08-09T00:55:13.111Z,18.41
2022-08-09T00:58:01.508Z,18.43
2022-08-09T01:00:35.439Z,18.37
2022-08-09T01:03:13.696Z,18.33
2022-08-09T01:05:54.008Z,18.31
2022-08-09T01:08:34.848Z,18.22
2022-08-09T01:11:19.121Z,18.19
2022-08-09T01:13:59.476Z,18.14
2022-08-09T01:16:36.145Z,18.09
2022-08-09T01:19:17.162Z,18.14
2022-08-09T01:22:16.487Z,18.12
2022-08-09T01:24:56.815Z,18.09
2022-08-09T01:27:29.158Z,18.04
2022-08-09T01:30:01.547Z,18.03
2022-08-09T01:32:34.640Z,18.00
2022-08-09T01:35:29.124Z,18.01
2022-08-09T01:38:07.684Z,18.00
2022-08-09T01:40:42.506Z,17.99
2022-08-09T01:43:12.406Z,17.94
2022-08-09T01:45:46.358Z,17.88
2022-08-09T01:48:18.103Z,17.84
2022-08-09T01:50:55.085Z,17.86
2022-08-09T01:53:29.326Z,17.81
2022-08-09T01:56:11.565Z,17.80
2022-08-09T01:58:43.757Z,17.77
2022-08-09T02:01:18.670Z,17.78
2022-08-09T02:04:13.862Z,17.75
2022-08-09T02:07:03.262Z,17.69
2022-08-09T02:09:41.927Z,17.69
2022-08-09T02:12:18.013Z,17.69
2022-08-09T02:14:55.898Z,17.66
2022-08-09T02:17:55.064Z,17.61
2022-08-09T02:20:22.727Z,17.62
2022-08-09T02:23:00.350Z,17.55
2022-08-09T02:25:33.028Z,17.54
2022-08-09T02:28:17.992Z,17.50
2022-08-09T02:30:51.858Z,17.49
2022-08-09T02:33:58.229Z,17.46
2022-08-09T02:36:17.155Z,17.44
2022-08-09T02:38:49.388Z,17.46
2022-08-09T02:41:20.717Z,17.45
2022-08-09T02:43:54.567Z,17.43
2022-08-09T02:46:27.706Z,17.41
2022-08-09T02:49:03.658Z,17.42
2022-08-09T02:51:40.641Z,17.42
2022-08-09T02:54:12.353Z,17.46
2022-08-09T02:56:48.847Z,17.45
2022-08-09T02:59:25.891Z,17.52
2022-08-09T03:02:09.701Z,17.53
2022-08-09T03:04:41.823Z,17.52
2022-08-09T03:07:14.071Z,17.54
2022-08-09T03:09:56.326Z,17.57
2022-08-09T03:12:27.130Z,17.61
2022-08-09T03:14:56.276Z,17.64
2022-08-09T03:17:27.481Z,17.67
2022-08-09T03:20:04.991Z,17.66
2022-08-09T03:22:42.157Z,17.69
2022-08-09T03:25:56.729Z,17.66
2022-08-09T03:28:04.923Z,17.62
2022-08-09T03:30:40.356Z,17.63
2022-08-09T03:33:18.936Z,17.60
2022-08-09T03:36:13.804Z,17.62
2022-08-09T03:38:42.071Z,17.61
2022-08-09T03:41:14.765Z,17.64
2022-08-09T03:44:03.816Z,17.65
2022-08-09T03:46:34.138Z,17.68
2022-08-09T03:49:09.115Z,17.67
2022-08-09T03:51:55.184Z,17.65
2022-08-09T03:54:29.765Z,17.67
2022-08-09T03:57:01.512Z,17.64
2022-08-09T03:59:53.039Z,17.62
2022-08-09T04:02:26.462Z,17.62
2022-08-09T04:04:59.004Z,17.62
2022-08-09T04:07:47.789Z,17.61
2022-08-09T04:10:20.283Z,17.63
2022-08-09T04:12:51.521Z,17.61
2022-08-09T04:15:38.835Z,17.61
2022-08-09T04:18:09.785Z,17.56
2022-08-09T04:20:47.562Z,17.56
2022-08-09T04:23:16.927Z,17.54
2022-08-09T04:25:51.788Z,17.50
2022-08-09T04:28:33.940Z,17.48
2022-08-09T04:31:08.551Z,17.49
2022-08-09T04:33:52.182Z,17.49
2022-08-09T04:36:25.687Z,17.45
2022-08-09T04:38:54.454Z,17.43
2022-08-09T04:41:24.418Z,17.42
2022-08-09T04:44:06.053Z,17.40
2022-08-09T04:46:37.656Z,17.40
2022-08-09T04:49:40.281Z,17.39
2022-08-09T04:52:21.830Z,17.38
2022-08-09T04:54:53.814Z,17.36
2022-08-09T04:57:24.359Z,17.34
2022-08-09T04:59:54.528Z,17.35
2022-08-09T05:02:23.184Z,17.36
2022-08-09T05:04:55.085Z,17.37
2022-08-09T05:07:27.743Z,17.39
2022-08-09T05:10:01.620Z,17.41
2022-08-09T05:12:33.153Z,17.45
2022-08-09T05:15:11.216Z,17.48
2022-08-09T05:18:42.926Z,17.50
2022-08-09T05:20:29.862Z,17.53
2022-08-09T05:23:54.321Z,17.58
2022-08-09T05:25:51.069Z,17.63
2022-08-09T05:28:19.751Z,17.65
2022-08-09T05:30:48.135Z,17.66
2022-08-09T05:33:16.436Z,17.71
2022-08-09T05:35:50.898Z,17.76
2022-08-09T05:38:22.092Z,17.80
2022-08-09T05:40:52.044Z,17.85
2022-08-09T05:43:23.598Z,17.88
2022-08-09T05:45:57.036Z,17.94
2022-08-09T05:48:32.757Z,17.97
2022-08-09T05:51:42.367Z,18.01
2022-08-09T05:53:57.598Z,18.09
2022-08-09T05:56:28.376Z,18.19
2022-08-09T05:58:58.588Z,18.17
2022-08-09T06:01:34.095Z,18.25
2022-08-09T06:04:12.349Z,18.27
2022-08-09T06:06:46.683Z,18.23
2022-08-09T06:09:23.067Z,18.23
2022-08-09T06:12:08.088Z,18.16
2022-08-09T06:14:36.321Z,18.20
2022-08-09T06:17:09.096Z,18.30
2022-08-09T06:19:37.368Z,18.17
2022-08-09T06:22:06.432Z,18.15
2022-08-09T06:24:44.613Z,18.25
2022-08-09T06:27:15.581Z,18.29
2022-08-09T06:29:48.178Z,18.19
2022-08-09T06:32:58.987Z,18.24
2022-08-09T06:35:15.240Z,18.11
2022-08-09T06:37:53.141Z,18.24
2022-08-09T06:40:33.432Z,18.38
2022-08-09T06:43:02.272Z,18.42
2022-08-09T06:46:06.206Z,18.54
2022-08-09T06:48:30.381Z,18.66
2022-08-09T06:51:00.180Z,18.55
2022-08-09T06:53:38.035Z,18.60
2022-08-09T06:56:09.236Z,18.60
2022-08-09T07:00:49.027Z,18.56
2022-08-09T07:01:35.650Z,18.74
2022-08-09T07:04:19.950Z,18.95
2022-08-09T07:06:53.073Z,18.92
2022-08-09T07:09:56.050Z,19.08
2022-08-09T07:12:13.504Z,19.22
2022-08-09T07:14:45.871Z,19.45
2022-08-09T07:17:19.957Z,19.41
2022-08-09T07:19:55.262Z,19.43
2022-08-09T07:22:34.297Z,19.62
2022-08-09T07:25:05.421Z,19.61
2022-08-09T07:27:43.124Z,19.69
2022-08-09T07:30:24.358Z,20.16
2022-08-09T07:32:53.482Z,20.25
2022-08-09T07:35:23.829Z,20.30
2022-08-09T07:37:54.118Z,20.34
2022-08-09T07:40:37.289Z,20.34
2022-08-09T07:43:18.363Z,20.68
2022-08-09T07:45:46.810Z,20.78
2022-08-09T07:48:28.451Z,20.94
2022-08-09T07:51:10.141Z,21.21
2022-08-09T07:54:05.929Z,21.14
2022-08-09T07:56:37.047Z,20.60
2022-08-09T07:59:25.745Z,20.95
2022-08-09T08:02:03.607Z,20.98
2022-08-09T08:04:34.226Z,20.87
2022-08-09T08:07:27.074Z,21.37
2022-08-09T08:10:04.617Z,21.18
2022-08-09T08:12:43.456Z,21.56
2022-08-09T08:15:16.614Z,21.65
2022-08-09T08:17:53.743Z,21.83
2022-08-09T08:20:29.249Z,21.67
2022-08-09T08:23:01.626Z,21.75
2022-08-09T08:25:44.338Z,21.69
2022-08-09T08:28:15.178Z,22.11
2022-08-09T08:30:46.733Z,22.15
2022-08-09T08:33:23.689Z,22.41
2022-08-09T08:36:00.529Z,22.71
2022-08-09T08:38:31.790Z,23.24
2022-08-09T08:41:05.530Z,22.54
2022-08-09T08:43:36.166Z,22.54
2022-08-09T08:46:32.625Z,22.53
2022-08-09T08:48:58.656Z,22.60
2022-08-09T08:51:27.187Z,23.03
2022-08-09T08:54:20.228Z,22.99
2022-08-09T08:56:48.904Z,22.79
2022-08-09T08:59:19.621Z,23.00
2022-08-09T09:01:53.212Z,22.90
2022-08-09T09:04:31.112Z,22.58
2022-08-09T09:07:09.407Z,23.17
2022-08-09T09:09:58.785Z,23.24
2022-08-09T09:12:35.506Z,23.67
2022-08-09T09:15:06.569Z,23.98
2022-08-09T09:17:49.321Z,23.53
2022-08-09T09:21:14.646Z,23.56
2022-08-09T09:23:48.978Z,23.93
2022-08-09T09:26:26.114Z,23.91
2022-08-09T09:29:03.782Z,24.43
2022-08-09T09:32:03.449Z,24.40
2022-08-09T09:34:29.709Z,24.11
2022-08-09T09:36:59.069Z,24.21
2022-08-09T09:39:50.350Z,24.44
2022-08-09T09:42:25.736Z,24.17
2022-08-09T09:44:59.333Z,24.22
2022-08-09T09:47:29.060Z,24.38
2022-08-09T09:50:14.315Z,24.45
2022-08-09T09:52:52.358Z,24.50
2022-08-09T09:55:27.518Z,24.44
2022-08-09T09:58:16.469Z,24.62
2022-08-09T10:00:54.171Z,24.73
2022-08-09T10:03:56.202Z,24.65
2022-08-09T10:06:32.296Z,24.58
2022-08-09T10:09:12.052Z,24.91
2022-08-09T10:12:11.593Z,24.95
2022-08-09T10:14:47.830Z,24.87
2022-08-09T10:17:50.289Z,25.03
2022-08-09T10:20:27.080Z,25.25
2022-08-09T10:23:19.972Z,25.56
2022-08-09T10:26:06.266Z,25.36
2022-08-09T10:28:38.414Z,25.29
2022-08-09T10:34:09.952Z,25.33
2022-08-09T10:36:45.416Z,25.64
2022-08-09T10:39:19.251Z,25.50
2022-08-09T10:41:48.473Z,25.99
2022-08-09T10:44:21.711Z,25.97
2022-08-09T10:48:10.178Z,26.21
2022-08-09T10:50:05.927Z,26.43
2022-08-09T10:53:10.411Z,26.48
2022-08-09T10:55:57.931Z,26.52
2022-08-09T10:58:37.274Z,26.28
2022-08-09T11:03:14.334Z,26.63
2022-08-09T11:04:31.660Z,26.84
2022-08-09T11:07:55.778Z,26.69
2022-08-09T11:10:17.642Z,26.83
2022-08-09T11:13:54.124Z,27.35
2022-08-09T11:16:39.334Z,27.10
2022-08-09T11:19:11.183Z,27.39
2022-08-09T11:21:57.006Z,27.71
2022-08-09T11:25:05.561Z,27.36
2022-08-09T11:28:08.032Z,27.73
2022-08-09T11:30:38.039Z,28.06
2022-08-09T11:33:12.992Z,28.11
2022-08-09T11:35:49.953Z,28.37
2022-08-09T11:38:22.228Z,28.36
2022-08-09T11:40:57.670Z,28.72
2022-08-09T11:43:39.703Z,28.24
2022-08-09T11:46:10.242Z,28.70
2022-08-09T11:48:49.256Z,29.04
2022-08-09T11:51:38.080Z,28.45
2022-08-09T11:54:27.824Z,29.02
2022-08-09T11:57:47.865Z,29.23
2022-08-09T12:00:27.185Z,29.23
2022-08-09T12:02:59.600Z,29.30
2022-08-09T12:05:42.345Z,29.20
2022-08-09T12:08:21.403Z,29.52
2022-08-09T12:10:53.644Z,29.52
2022-08-09T12:14:09.657Z,29.34
2022-08-09T12:16:30.808Z,29.67
2022-08-09T12:19:14.929Z,29.54
2022-08-09T12:21:50.611Z,29.43
2022-08-09T12:24:25.129Z,29.64
2022-08-09T12:29:10.989Z,29.93
2022-08-09T12:30:01.581Z,29.34
2022-08-09T12:32:44.550Z,29.80
2022-08-09T12:35:19.328Z,29.17
2022-08-09T12:37:51.741Z,29.56
2022-08-09T12:40:24.611Z,30.10
2022-08-09T12:42:53.417Z,29.77
2022-08-09T12:45:34.267Z,29.68
2022-08-09T12:48:20.115Z,29.86
2022-08-09T12:51:04.587Z,30.11
2022-08-09T12:53:38.730Z,29.85
2022-08-09T12:56:43.134Z,29.08
2022-08-09T12:59:08.042Z,29.21
2022-08-09T13:01:36.397Z,29.14
2022-08-09T13:04:33.222Z,28.71
2022-08-09T13:07:13.482Z,28.21
2022-08-09T13:09:48.204Z,28.23
2022-08-09T13:12:24.269Z,28.21
2022-08-09T13:14:54.908Z,28.00
2022-08-09T13:18:03.126Z,28.11
2022-08-09T13:20:17.475Z,28.10
2022-08-09T13:23:00.735Z,27.99
2022-08-09T13:25:42.067Z,27.99
2022-08-09T13:28:18.811Z,27.81
2022-08-09T13:32:12.567Z,27.45
2022-08-09T13:33:54.554Z,27.60
2022-08-09T13:36:24.337Z,27.54
2022-08-09T13:41:50.637Z,27.57
2022-08-09T13:42:02.580Z,27.46
2022-08-09T13:44:31.457Z,27.63
2022-08-09T13:47:28.847Z,27.24
2022-08-09T13:49:57.568Z,27.09
2022-08-09T13:52:29.836Z,26.90
2022-08-09T13:55:04.729Z,27.04
2022-08-09T13:57:40.323Z,26.81
2022-08-09T14:00:13.245Z,26.72
2022-08-09T14:03:04.574Z,26.90
2022-08-09T14:05:56.420Z,26.89
2022-08-09T14:08:27.129Z,26.85
2022-08-09T14:10:59.569Z,26.89
2022-08-09T14:14:22.087Z,26.94
2022-08-09T14:16:28.274Z,26.81
2022-08-09T14:18:58.493Z,26.97
2022-08-09T14:21:32.007Z,26.82
2022-08-09T14:24:10.054Z,26.69
2022-08-09T14:26:40.839Z,26.44
2022-08-09T14:30:04.147Z,26.64
2022-08-09T14:32:10.823Z,26.44
2022-08-09T14:34:41.487Z,26.56
2022-08-09T14:37:09.758Z,26.59
2022-08-09T14:39:40.206Z,26.52
2022-08-09T14:42:30.357Z,26.46
2022-08-09T14:46:51.435Z,26.53
2022-08-09T14:47:58.733Z,26.27
2022-08-09T14:50:30.651Z,26.23
2022-08-09T14:52:59.908Z,26.26
2022-08-09T14:55:29.069Z,26.33
2022-08-09T14:58:03.622Z,26.33
2022-08-09T15:00:36.474Z,26.18
2022-08-09T15:03:07.849Z,26.27
2022-08-09T15:05:37.848Z,26.06
2022-08-09T15:08:06.553Z,26.12
2022-08-09T15:10:39.224Z,26.27
2022-08-09T15:13:09.807Z,26.38
2022-08-09T15:15:39.217Z,26.25
2022-08-09T15:18:14.093Z,26.26
2022-08-09T15:21:57.793Z,26.33
2022-08-09T15:24:09.463Z,26.41
2022-08-09T15:26:31.197Z,26.31
2022-08-09T15:29:04.667Z,26.25
2022-08-09T15:31:41.421Z,26.18
2022-08-09T15:34:17.199Z,26.09
2022-08-09T15:37:01.081Z,26.05
2022-08-09T15:39:43.849Z,25.99
2022-08-09T15:42:19.986Z,26.13
2022-08-09T15:44:51.333Z,26.09
2022-08-09T15:47:22.790Z,25.94
2022-08-09T15:50:04.802Z,25.85
2022-08-09T15:52:35.910Z,25.85
2022-08-09T15:55:04.961Z,25.96
2022-08-09T15:57:35.350Z,26.05
2022-08-09T16:00:24.537Z,25.85
2022-08-09T16:02:56.818Z,25.82
2022-08-09T16:05:46.998Z,25.72
2022-08-09T16:08:30.056Z,25.96
2022-08-09T16:11:00.135Z,25.94
2022-08-09T16:14:02.864Z,25.81
2022-08-09T16:16:20.006Z,25.86
2022-08-09T16:18:54.376Z,25.89
2022-08-09T16:21:25.443Z,25.81
2022-08-09T16:23:58.403Z,25.64
2022-08-09T16:26:34.012Z,25.83
2022-08-09T16:29:11.762Z,25.72
2022-08-09T16:32:17.934Z,26.03
2022-08-09T16:34:54.797Z,25.95
2022-08-09T16:37:50.681Z,25.99
2022-08-09T16:40:09.670Z,26.06
2022-08-09T16:42:45.481Z,25.73
2022-08-09T16:45:17.565Z,25.94
2022-08-09T16:48:40.828Z,25.96
2022-08-09T16:50:36.743Z,26.11
2022-08-09T16:53:09.074Z,26.27
2022-08-09T16:56:00.134Z,26.34
2022-08-09T16:58:28.382Z,26.09
2022-08-09T17:01:04.359Z,26.59
2022-08-09T17:03:35.723Z,26.54
2022-08-09T17:06:29.027Z,26.66
2022-08-09T17:09:17.576Z,26.56
2022-08-09T17:11:53.131Z,27.29
2022-08-09T17:14:27.293Z,27.23
2022-08-09T17:16:59.767Z,27.34
2022-08-09T17:20:28.603Z,27.21
2022-08-09T17:22:36.445Z,27.14
2022-08-09T17:25:18.818Z,27.40
2022-08-09T17:27:49.545Z,27.18
2022-08-09T17:30:25.679Z,26.92
2022-08-09T17:33:00.565Z,26.95
2022-08-09T17:35:32.736Z,27.09
2022-08-09T17:38:11.799Z,26.57
2022-08-09T17:40:47.099Z,26.13
2022-08-09T17:43:34.139Z,26.25
2022-08-09T17:46:06.728Z,25.73
2022-08-09T17:48:39.413Z,25.54
2022-08-09T17:51:19.432Z,25.46
2022-08-09T17:53:53.506Z,25.20
2022-08-09T17:56:27.433Z,24.68
2022-08-09T17:58:58.848Z,24.63
2022-08-09T18:01:40.959Z,24.67
2022-08-09T18:04:18.001Z,24.35
2022-08-09T18:06:54.087Z,24.07
2022-08-09T18:09:25.180Z,24.18
2022-08-09T18:12:14.837Z,24.14
2022-08-09T18:14:54.102Z,24.01
2022-08-09T18:18:02.705Z,23.57
2022-08-09T18:20:56.589Z,23.68
2022-08-09T18:23:04.935Z,23.38
2022-08-09T18:25:51.021Z,23.50
2022-08-09T18:30:42.691Z,23.33
2022-08-09T18:31:19.256Z,23.09
2022-08-09T18:34:00.995Z,23.14
2022-08-09T18:36:32.558Z,22.85
2022-08-09T18:39:07.226Z,22.88
2022-08-09T18:41:46.963Z,22.73
2022-08-09T18:44:25.796Z,22.74
2022-08-09T18:47:07.947Z,22.75
2022-08-09T18:49:46.605Z,22.52
2022-08-09T18:52:18.925Z,22.48
2022-08-09T18:54:55.630Z,22.38
2022-08-09T18:57:38.632Z,22.25
2022-08-09T19:00:20.278Z,22.32
2022-08-09T19:02:51.272Z,22.31
2022-08-09T19:05:28.736Z,22.36
2022-08-09T19:08:14.039Z,22.28
2022-08-09T19:10:48.876Z,22.19
2022-08-09T19:13:23.360Z,22.13
2022-08-09T19:16:07.506Z,22.07
2022-08-09T19:18:43.758Z,22.11
2022-08-09T19:21:14.753Z,22.05
2022-08-09T19:24:39.489Z,22.00
2022-08-09T19:26:34.998Z,21.92
2022-08-09T19:29:15.161Z,21.78
2022-08-09T19:31:51.641Z,21.60
2022-08-09T19:34:21.583Z,21.66
2022-08-09T19:36:52.226Z,21.77
2022-08-09T19:39:29.172Z,21.69
2022-08-09T19:42:14.475Z,21.78
2022-08-09T19:44:43.817Z,21.58
2022-08-09T19:47:22.963Z,21.61
2022-08-09T19:50:07.709Z,21.43
2022-08-09T19:52:37.417Z,21.50
2022-08-09T19:55:19.530Z,21.41
2022-08-09T19:57:55.050Z,21.36
2022-08-09T20:00:23.229Z,21.50
2022-08-09T20:04:11.715Z,21.19
2022-08-09T20:05:46.898Z,21.16
2022-08-09T20:08:24.855Z,21.19
2022-08-09T20:11:04.083Z,21.32
2022-08-09T20:13:37.124Z,21.03
2022-08-09T20:16:38.055Z,20.92
2022-08-09T20:19:42.400Z,20.88
2022-08-09T20:21:57.254Z,20.77
2022-08-09T20:24:29.773Z,20.77
2022-08-09T20:27:07.959Z,20.84
2022-08-09T20:29:40.070Z,20.56
2022-08-09T20:32:31.175Z,20.58
2022-08-09T20:35:00.019Z,20.52
2022-08-09T20:38:19.076Z,20.58
2022-08-09T20:40:26.424Z,20.45
2022-08-09T20:43:18.534Z,20.32
2022-08-09T20:45:57.034Z,20.21
2022-08-09T20:48:32.380Z,20.14
2022-08-09T20:51:01.272Z,20.07
2022-08-09T20:53:37.804Z,20.05
2022-08-09T20:56:20.018Z,20.09
2022-08-09T20:58:54.292Z,20.00
2022-08-09T21:01:34.154Z,19.92
2022-08-09T21:05:51.483Z,19.88
2022-08-09T21:07:12.736Z,19.90
2022-08-09T21:09:45.361Z,19.79
2022-08-09T21:14:49.060Z,19.92
2022-08-09T21:18:11.773Z,19.87
2022-08-09T21:20:22.418Z,19.85
2022-08-09T21:22:54.871Z,19.83
2022-08-09T21:25:43.965Z,19.71
2022-08-09T21:28:33.398Z,19.72
2022-08-09T21:31:17.980Z,19.67
2022-08-09T21:33:53.248Z,19.70
2022-08-09T21:36:28.580Z,19.75
2022-08-09T21:38:59.373Z,19.59
2022-08-09T21:42:03.691Z,19.67
2022-08-09T21:44:33.180Z,19.66
2022-08-09T21:47:09.481Z,19.61
2022-08-09T21:49:43.217Z,19.63
2022-08-09T21:52:16.995Z,19.53
2022-08-09T21:54:50.619Z,19.59
2022-08-09T21:57:38.815Z,19.60
2022-08-09T22:00:25.492Z,19.61
2022-08-09T22:02:58.831Z,19.56
2022-08-09T22:05:36.931Z,19.47
2022-08-09T22:08:14.086Z,19.54
2022-08-09T22:11:49.319Z,19.44
2022-08-09T22:13:34.936Z,19.60
2022-08-09T22:16:07.732Z,19.57
2022-08-09T22:18:37.460Z,19.52
2022-08-09T22:21:09.335Z,19.47
2022-08-09T22:24:01.300Z,19.49
2022-08-09T22:26:35.402Z,19.41
2022-08-09T22:29:09.266Z,19.48
2022-08-09T22:31:44.602Z,19.35
2022-08-09T22:34:25.744Z,19.45
2022-08-09T22:36:56.365Z,19.46
2022-08-09T22:39:57.753Z,19.42
2022-08-09T22:42:20.828Z,19.43
2022-08-09T22:45:11.520Z,19.44
2022-08-09T22:48:15.524Z,19.39
2022-08-09T22:50:28.139Z,19.33
2022-08-09T22:52:58.284Z,19.23
2022-08-09T22:55:39.767Z,19.29
2022-08-09T22:58:20.174Z,19.28
2022-08-09T23:01:00.613Z,19.25
2022-08-09T23:04:02.649Z,19.33
2022-08-09T23:06:32.573Z,19.13
2022-08-09T23:09:06.859Z,19.13
2022-08-09T23:11:34.897Z,19.15
2022-08-09T23:14:04.083Z,19.21
2022-08-09T23:16:38.905Z,19.26
2022-08-09T23:19:06.969Z,19.17
2022-08-09T23:21:35.714Z,19.15
2022-08-09T23:24:08.334Z,19.18
2022-08-09T23:26:37.000Z,19.21
2022-08-09T23:29:05.999Z,19.25
2022-08-09T23:31:34.389Z,19.13
2022-08-09T23:34:03.871Z,19.19
2022-08-09T23:36:32.317Z,19.02
2022-08-09T23:39:00.936Z,19.00
2022-08-09T23:41:30.370Z,19.07
2022-08-09T23:44:00.191Z,19.01
2022-08-09T23:46:29.271Z,18.98
2022-08-09T23:48:57.358Z,19.06
2022-08-09T23:51:26.079Z,19.10
2022-08-09T23:54:02.978Z,19.14
2022-08-09T23:56:52.049Z,19.04
2022-08-09T23:59:22.249Z,19.06
